createdAt,value
2022-08-03T00:02:44.087Z,7.68
2022-08-03T00:06:46.614Z,7.22
2022-08-03T00:10:49.027Z,8.25
2022-08-03T00:14:51.551Z,8.73
2022-08-03T00:18:53.886Z,8.93
2022-08-03T00:22:56.704Z,9.73
2022-08-03T00:26:59.166Z,7.68
2022-08-03T00:31:01.420Z,7.80
2022-08-03T00:35:08.346Z,8.95
2022-08-03T00:39:12.955Z,8.75
2022-08-03T00:43:14.934Z,7.40
2022-08-03T00:47:17.258Z,8.77
2022-08-03T00:51:21.915Z,8.77
2022-08-03T00:55:24.820Z,9.43
2022-08-03T00:59:27.531Z,9.20
2022-08-03T01:03:29.995Z,9.88
2022-08-03T01:08:10.528Z,9.30
2022-08-03T01:12:48.188Z,8.52
2022-08-03T01:16:57.285Z,8.77
2022-08-03T01:21:07.846Z,8.20
2022-08-03T01:25:36.908Z,8.60
2022-08-03T01:29:39.083Z,9.75
2022-08-03T01:33:44.205Z,9.80
2022-08-03T01:37:56.302Z,8.65
2022-08-03T01:42:22.037Z,9.30
2022-08-03T01:46:47.732Z,8.63
2022-08-03T01:50:53.308Z,8.63
2022-08-03T01:54:56.642Z,8.13
2022-08-03T01:59:02.367Z,8.10
2022-08-03T02:03:07.064Z,8.85
2022-08-03T02:07:10.804Z,8.88
2022-08-03T02:11:13.792Z,9.02
2022-08-03T02:15:38.252Z,8.55
2022-08-03T02:19:43.415Z,8.02
2022-08-03T02:23:45.515Z,8.55
2022-08-03T02:28:02.221Z,8.95
2022-08-03T02:32:04.814Z,9.68
2022-08-03T02:36:28.574Z,8.82
2022-08-03T02:40:34.085Z,8.43
2022-08-03T02:44:38.487Z,8.90
2022-08-03T02:48:41.942Z,9.70
2022-08-03T02:52:47.819Z,8.80
2022-08-03T02:56:52.252Z,9.70
2022-08-03T03:00:56.000Z,8.77
2022-08-03T03:05:52.989Z,9.73
2022-08-03T03:09:22.773Z,9.00
2022-08-03T03:13:27.212Z,8.40
2022-08-03T03:17:31.453Z,10.38
2022-08-03T03:21:34.117Z,11.07
2022-08-03T03:25:37.617Z,11.52
2022-08-03T03:29:41.226Z,10.50
2022-08-03T03:33:44.277Z,10.88
2022-08-03T03:37:46.886Z,9.43
2022-08-03T03:41:49.579Z,10.32
2022-08-03T03:45:53.733Z,10.88
2022-08-03T03:50:36.015Z,12.52
2022-08-03T03:54:42.777Z,11.27
2022-08-03T03:58:45.178Z,12.95
2022-08-03T04:02:47.835Z,14.02
2022-08-03T04:07:09.122Z,13.98
2022-08-03T04:11:20.398Z,16.38
2022-08-03T04:15:34.148Z,21.50
2022-08-03T04:19:57.743Z,24.20
2022-08-03T04:24:03.885Z,20.27
2022-08-03T04:28:31.262Z,20.23
2022-08-03T04:32:37.436Z,18.50
2022-08-03T04:36:48.679Z,25.77
2022-08-03T04:40:52.861Z,26.50
2022-08-03T04:45:01.092Z,28.15
2022-08-03T04:49:05.751Z,38.08
2022-08-03T04:53:09.109Z,38.47
2022-08-03T04:57:22.340Z,33.28
2022-08-03T05:01:25.924Z,25.27
2022-08-03T05:05:50.291Z,26.92
2022-08-03T05:09:52.997Z,26.58
2022-08-03T05:14:03.974Z,24.65
2022-08-03T05:18:09.537Z,24.33
2022-08-03T05:22:14.605Z,24.60
2022-08-03T05:26:17.223Z,25.83
2022-08-03T05:30:31.239Z,23.90
2022-08-03T05:34:37.891Z,22.90
2022-08-03T05:38:40.180Z,23.77
2022-08-03T05:42:42.244Z,23.27
2022-08-03T05:46:44.540Z,20.50
2022-08-03T05:50:46.566Z,20.33
2022-08-03T05:54:55.492Z,24.70
2022-08-03T05:59:11.360Z,18.27
2022-08-03T06:03:22.225Z,21.92
2022-08-03T06:07:24.660Z,18.05
2022-08-03T06:11:27.011Z,16.98
2022-08-03T06:15:29.397Z,15.43
2022-08-03T06:19:31.865Z,21.80
2022-08-03T06:23:54.356Z,18.17
2022-08-03T06:27:57.185Z,21.50
2022-08-03T06:31:59.254Z,19.85
2022-08-03T06:36:01.744Z,21.50
2022-08-03T06:40:04.193Z,21.60
2022-08-03T06:44:06.475Z,19.70
2022-08-03T06:48:11.910Z,21.48
2022-08-03T06:52:14.299Z,20.35
2022-08-03T06:56:36.537Z,19.70
2022-08-03T07:00:39.160Z,19.02
2022-08-03T07:04:41.159Z,19.45
2022-08-03T07:08:43.536Z,21.23
2022-08-03T07:12:55.597Z,21.65
2022-08-03T07:16:58.576Z,19.30
2022-08-03T07:21:00.587Z,21.20
2022-08-03T07:25:03.306Z,19.25
2022-08-03T07:29:14.829Z,19.35
2022-08-03T07:33:17.815Z,21.60
2022-08-03T07:37:19.931Z,16.88
2022-08-03T07:41:22.389Z,21.20
2022-08-03T07:45:24.685Z,23.58
2022-08-03T07:49:26.988Z,20.80
2022-08-03T07:53:29.085Z,21.15
2022-08-03T07:57:31.346Z,17.25
2022-08-03T08:01:36.724Z,18.95
2022-08-03T08:05:39.022Z,15.32
2022-08-03T08:09:41.051Z,18.65
2022-08-03T08:13:43.271Z,20.73
2022-08-03T08:17:48.584Z,16.98
2022-08-03T08:21:53.162Z,16.00
2022-08-03T08:26:04.250Z,17.20
2022-08-03T08:30:11.465Z,12.68
2022-08-03T08:38:17.207Z,15.50
2022-08-03T08:42:19.384Z,14.52
2022-08-03T08:46:23.092Z,11.32
2022-08-03T08:50:27.691Z,7.60
2022-08-03T08:54:33.365Z,8.20
2022-08-03T08:58:38.902Z,9.65
2022-08-03T09:02:45.655Z,8.95
2022-08-03T09:07:10.574Z,7.28
2022-08-03T09:11:11.946Z,5.53
2022-08-03T09:15:23.030Z,5.90
2022-08-03T09:19:25.352Z,4.82
2022-08-03T09:24:01.588Z,3.75
2022-08-03T09:28:10.827Z,4.10
2022-08-03T09:32:13.599Z,4.60
2022-08-03T09:36:37.405Z,3.63
2022-08-03T09:40:40.578Z,5.10
2022-08-03T09:44:46.719Z,5.38
2022-08-03T09:48:48.804Z,4.45
2022-08-03T09:52:52.841Z,4.28
2022-08-03T09:56:55.173Z,6.47
2022-08-03T10:01:00.276Z,6.65
2022-08-03T10:05:02.965Z,5.35
2022-08-03T10:09:10.778Z,6.18
2022-08-03T10:13:18.090Z,6.23
2022-08-03T10:17:24.717Z,5.60
2022-08-03T10:21:32.550Z,5.95
2022-08-03T10:25:38.551Z,5.25
2022-08-03T10:29:48.494Z,5.15
2022-08-03T10:33:53.331Z,5.95
2022-08-03T10:38:06.954Z,5.97
2022-08-03T10:42:10.780Z,5.30
2022-08-03T10:46:20.727Z,5.10
2022-08-03T10:50:25.163Z,5.72
2022-08-03T10:54:59.671Z,5.03
2022-08-03T10:59:03.795Z,5.13
2022-08-03T11:03:14.658Z,5.45
2022-08-03T11:07:22.398Z,5.82
2022-08-03T11:11:47.503Z,6.30
2022-08-03T11:15:59.710Z,5.38
2022-08-03T11:20:05.428Z,4.85
2022-08-03T11:24:08.102Z,4.95
2022-08-03T11:28:27.201Z,5.63
2022-08-03T11:32:38.492Z,4.43
2022-08-03T11:37:18.116Z,4.47
2022-08-03T11:41:42.731Z,4.55
2022-08-03T11:46:29.679Z,4.50
2022-08-03T11:50:38.426Z,5.00
2022-08-03T11:54:41.004Z,4.32
2022-08-03T11:59:15.008Z,4.20
2022-08-03T12:03:17.220Z,4.85
2022-08-03T12:07:25.002Z,4.55
2022-08-03T12:11:59.545Z,4.72
2022-08-03T12:16:03.331Z,4.35
2022-08-03T12:20:07.696Z,4.28
2022-08-03T12:24:10.336Z,4.60
2022-08-03T12:28:36.295Z,4.72
2022-08-03T12:32:39.887Z,4.47
2022-08-03T12:36:56.997Z,4.72
2022-08-03T12:41:01.610Z,4.70
2022-08-03T12:45:23.700Z,4.65
2022-08-03T12:49:26.617Z,4.82
2022-08-03T12:53:30.221Z,4.28
2022-08-03T12:57:42.362Z,4.35
2022-08-03T13:01:54.894Z,4.50
2022-08-03T13:05:59.018Z,3.70
2022-08-03T13:10:04.930Z,4.28
2022-08-03T13:14:10.068Z,4.47
2022-08-03T13:18:19.524Z,4.47
2022-08-03T13:22:24.414Z,3.80
2022-08-03T13:26:26.451Z,3.97
2022-08-03T13:30:30.141Z,4.47
2022-08-03T13:34:32.745Z,3.80
2022-08-03T13:38:35.089Z,3.95
2022-08-03T13:42:38.988Z,4.32
2022-08-03T13:46:41.537Z,4.18
2022-08-03T13:50:43.637Z,4.10
2022-08-03T13:54:47.099Z,4.43
2022-08-03T13:58:49.248Z,4.60
2022-08-03T14:02:52.017Z,4.43
2022-08-03T14:06:54.051Z,4.65
2022-08-03T14:10:56.290Z,4.93
2022-08-03T14:15:01.217Z,4.05
2022-08-03T14:19:05.086Z,4.65
2022-08-03T14:23:07.328Z,4.65
2022-08-03T14:27:09.764Z,5.10
2022-08-03T14:32:10.071Z,4.72
2022-08-03T14:35:34.545Z,4.30
2022-08-03T14:44:01.111Z,4.72
2022-08-03T14:50:29.095Z,4.28
2022-08-03T14:52:27.491Z,4.13
2022-08-03T14:56:29.569Z,4.38
2022-08-03T15:00:35.926Z,5.60
2022-08-03T15:04:38.017Z,4.13
2022-08-03T15:08:40.320Z,4.13
2022-08-03T15:12:42.384Z,4.78
2022-08-03T15:16:44.662Z,4.28
2022-08-03T15:20:47.323Z,5.05
2022-08-03T15:24:50.662Z,4.75
2022-08-03T15:28:52.738Z,4.70
2022-08-03T15:32:55.045Z,5.55
2022-08-03T15:36:57.123Z,5.20
2022-08-03T15:40:59.574Z,5.43
2022-08-03T15:45:01.811Z,4.85
2022-08-03T15:49:04.170Z,4.28
2022-08-03T15:53:06.239Z,5.82
2022-08-03T15:57:08.467Z,4.25
2022-08-03T16:01:15.282Z,4.32
2022-08-03T16:05:20.210Z,4.57
2022-08-03T16:09:23.369Z,4.78
2022-08-03T16:14:12.964Z,5.28
2022-08-03T16:18:07.635Z,4.50
2022-08-03T16:22:09.899Z,4.60
2022-08-03T16:26:12.686Z,4.68
2022-08-03T16:30:16.909Z,4.60
2022-08-03T16:34:19.094Z,4.38
2022-08-03T16:38:21.520Z,5.00
2022-08-03T16:42:23.644Z,4.95
2022-08-03T16:46:26.056Z,4.60
2022-08-03T16:50:28.371Z,5.80
2022-08-03T16:54:30.610Z,5.68
2022-08-03T16:58:41.254Z,6.03
2022-08-03T17:02:48.182Z,6.13
2022-08-03T17:06:50.535Z,6.43
2022-08-03T17:10:53.079Z,6.22
2022-08-03T17:14:55.257Z,6.03
2022-08-03T17:19:03.959Z,6.13
2022-08-03T17:23:35.778Z,7.03
2022-08-03T17:28:49.398Z,6.50
2022-08-03T17:32:06.529Z,6.88
2022-08-03T17:36:13.717Z,6.65
2022-08-03T17:40:18.918Z,6.22
2022-08-03T17:44:31.178Z,7.20
2022-08-03T17:48:41.239Z,7.63
2022-08-03T17:52:48.477Z,6.65
2022-08-03T17:57:22.498Z,6.40
2022-08-03T18:02:15.372Z,7.63
2022-08-03T18:06:31.127Z,7.50
2022-08-03T18:10:35.892Z,8.68
2022-08-03T18:15:00.692Z,9.13
2022-08-03T18:23:36.416Z,8.45
2022-08-03T18:27:45.482Z,8.95
2022-08-03T18:32:02.794Z,8.73
2022-08-03T18:36:09.508Z,9.45
2022-08-03T18:40:12.630Z,10.30
2022-08-03T18:44:38.108Z,9.25
2022-08-03T18:49:14.364Z,8.75
2022-08-03T18:53:21.582Z,9.45
2022-08-03T18:57:34.824Z,10.23
2022-08-03T19:01:59.160Z,9.65
2022-08-03T19:06:13.251Z,9.80
2022-08-03T19:10:25.716Z,9.55
2022-08-03T19:14:41.645Z,9.85
2022-08-03T19:18:50.298Z,11.50
2022-08-03T19:22:54.616Z,12.70
2022-08-03T19:26:58.925Z,13.00
2022-08-03T19:31:06.551Z,13.07
2022-08-03T19:35:13.267Z,12.75
2022-08-03T19:39:16.140Z,12.88
2022-08-03T19:43:32.917Z,13.57
2022-08-03T19:48:08.023Z,14.43
2022-08-03T19:52:14.500Z,13.02
2022-08-03T19:56:24.048Z,14.32
2022-08-03T20:00:30.642Z,14.05
2022-08-03T20:04:40.603Z,14.13
2022-08-03T20:08:44.176Z,13.88
2022-08-03T20:12:47.826Z,15.70
2022-08-03T20:16:52.274Z,15.23
2022-08-03T20:20:56.128Z,13.57
2022-08-03T20:25:02.891Z,15.27
2022-08-03T20:29:10.040Z,15.77
2022-08-03T20:33:12.605Z,14.80
2022-08-03T20:37:21.167Z,14.90
2022-08-03T20:41:23.751Z,15.77
2022-08-03T20:46:00.735Z,14.50
2022-08-03T20:49:48.111Z,15.60
2022-08-03T20:54:00.360Z,14.15
2022-08-03T20:58:04.858Z,13.98
2022-08-03T21:02:07.262Z,14.40
2022-08-03T21:06:18.040Z,15.98
2022-08-03T21:10:32.647Z,16.17
2022-08-03T21:13:05.735Z,8.93
2022-08-03T21:14:50.346Z,13.88
2022-08-03T21:22:58.506Z,12.50
2022-08-03T21:27:00.884Z,12.85
2022-08-03T21:31:03.925Z,11.90
2022-08-03T21:35:09.339Z,10.27
2022-08-03T21:39:12.034Z,9.98
2022-08-03T21:43:14.140Z,10.95
2022-08-03T21:47:17.723Z,10.57
2022-08-03T21:51:23.956Z,10.10
2022-08-03T21:55:28.695Z,9.43
2022-08-03T21:59:35.165Z,10.75
2022-08-03T22:03:52.940Z,9.52
2022-08-03T22:07:56.924Z,11.15
2022-08-03T22:11:59.156Z,11.45
2022-08-03T22:16:01.432Z,11.27
2022-08-03T22:20:07.362Z,11.45
2022-08-03T22:24:13.574Z,10.82
2022-08-03T22:28:16.608Z,10.80
2022-08-03T22:32:18.936Z,10.27
2022-08-03T22:36:24.069Z,11.90
2022-08-03T22:40:28.158Z,12.57
2022-08-03T22:44:31.831Z,11.38
2022-08-03T22:48:36.613Z,10.88
2022-08-03T22:52:45.297Z,10.93
2022-08-03T22:56:47.604Z,10.38
2022-08-03T23:01:03.768Z,10.18
2022-08-03T23:05:11.046Z,11.25
2022-08-03T23:09:32.677Z,11.18
2022-08-03T23:13:36.127Z,10.05
2022-08-03T23:17:57.591Z,11.85
2022-08-03T23:22:04.178Z,10.32
2022-08-03T23:26:18.288Z,9.32
2022-08-03T23:30:31.562Z,11.00
2022-08-03T23:34:53.511Z,10.68
2022-08-03T23:38:55.781Z,10.77
2022-08-03T23:43:00.429Z,10.77
2022-08-03T23:47:02.572Z,10.93
2022-08-03T23:51:10.525Z,10.77
2022-08-03T23:55:16.952Z,11.77
